createdAt,value
2018-07-01T00:00:32.780Z,10.80
2018-07-01T00:01:32.775Z,9.90
2018-07-01T00:02:32.786Z,10.00
2018-07-01T00:03:32.776Z,12.30
2018-07-01T00:04:32.779Z,9.80
2018-07-01T00:05:32.770Z,9.90
2018-07-01T00:06:32.770Z,10.20
2018-07-01T00:07:32.764Z,10.00
2018-07-01T00:08:32.771Z,9.70
2018-07-01T00:09:32.769Z,11.40
2018-07-01T00:10:32.769Z,11.10
2018-07-01T00:11:32.765Z,10.80
2018-07-01T00:12:32.759Z,10.40
2018-07-01T00:13:32.757Z,9.80
2018-07-01T00:14:32.756Z,10.20
2018-07-01T00:15:32.754Z,10.80
2018-07-01T00:16:32.758Z,10.10
2018-07-01T00:17:32.756Z,10.10
2018-07-01T00:18:32.752Z,10.10
2018-07-01T00:19:32.748Z,10.00
2018-07-01T00:20:32.754Z,10.00
2018-07-01T00:21:32.748Z,10.60
2018-07-01T00:22:32.750Z,9.80
2018-07-01T00:23:32.747Z,9.70
2018-07-01T00:24:32.743Z,9.80
2018-07-01T00:25:32.739Z,9.90
2018-07-01T00:26:32.737Z,10.10
2018-07-01T00:27:32.737Z,10.10
2018-07-01T00:28:32.741Z,10.20
2018-07-01T00:29:32.735Z,10.50
2018-07-01T00:30:32.737Z,10.00
2018-07-01T00:31:32.734Z,10.10
2018-07-01T00:32:32.728Z,10.30
2018-07-01T00:33:32.726Z,10.10
2018-07-01T00:34:32.729Z,10.00
2018-07-01T00:35:32.731Z,10.30
2018-07-01T00:36:32.720Z,9.70
2018-07-01T00:37:32.717Z,10.00
2018-07-01T00:38:32.716Z,10.60
2018-07-01T00:39:32.715Z,10.00
2018-07-01T00:40:32.718Z,10.10
2018-07-01T00:41:32.713Z,9.90
2018-07-01T00:42:32.716Z,10.40
2018-07-01T00:43:32.710Z,10.10
2018-07-01T00:44:32.703Z,10.70
2018-07-01T00:45:32.703Z,10.30
2018-07-01T00:46:32.701Z,10.00
2018-07-01T00:47:32.697Z,10.20
2018-07-01T00:48:32.703Z,10.50
2018-07-01T00:49:32.699Z,11.40
2018-07-01T00:50:32.693Z,10.90
2018-07-01T00:51:32.689Z,10.10
2018-07-01T00:52:32.696Z,10.40
2018-07-01T00:53:32.690Z,10.10
2018-07-01T00:54:32.687Z,10.20
2018-07-01T00:55:32.688Z,10.60
2018-07-01T00:56:32.681Z,10.40
2018-07-01T00:57:32.678Z,10.50
2018-07-01T00:58:32.674Z,10.40
2018-07-01T00:59:32.671Z,10.20
2018-07-01T01:00:32.679Z,13.40
2018-07-01T01:01:32.673Z,10.50
2018-07-01T01:02:32.670Z,10.40
2018-07-01T01:03:32.669Z,14.10
2018-07-01T01:04:32.664Z,10.70
2018-07-01T01:05:32.659Z,10.00
2018-07-01T01:06:32.660Z,10.20
2018-07-01T01:07:32.658Z,10.40
2018-07-01T01:08:32.651Z,10.40
2018-07-01T01:09:32.648Z,10.20
2018-07-01T01:10:32.648Z,10.20
2018-07-01T01:11:32.643Z,10.00
2018-07-01T01:12:32.647Z,10.30
2018-07-01T01:13:32.644Z,10.10
2018-07-01T01:14:32.640Z,10.40
2018-07-01T01:15:32.642Z,10.50
2018-07-01T01:16:32.631Z,10.00
2018-07-01T01:17:32.628Z,10.40
2018-07-01T01:18:32.631Z,10.10
2018-07-01T01:19:32.623Z,10.60
2018-07-01T01:20:32.634Z,10.10
2018-07-01T01:21:32.625Z,10.10
2018-07-01T01:22:32.619Z,10.00
2018-07-01T01:23:32.613Z,10.00
2018-07-01T01:24:32.620Z,10.00
2018-07-01T01:25:32.615Z,9.90
2018-07-01T01:26:32.614Z,10.20
2018-07-01T01:27:32.610Z,10.30
2018-07-01T01:28:32.601Z,11.30
2018-07-01T01:29:32.599Z,10.20
2018-07-01T01:30:32.598Z,10.40
2018-07-01T01:31:32.595Z,10.20
2018-07-01T01:32:32.597Z,10.40
2018-07-01T01:33:32.594Z,10.30
2018-07-01T01:34:32.591Z,10.20
2018-07-01T01:35:32.591Z,10.70
2018-07-01T01:36:32.585Z,10.50
2018-07-01T01:37:32.579Z,10.50
2018-07-01T01:38:32.581Z,9.70
2018-07-01T01:39:32.578Z,9.90
2018-07-01T01:40:32.573Z,10.10
2018-07-01T01:41:32.571Z,10.60
2018-07-01T01:42:32.566Z,10.10
2018-07-01T01:43:32.564Z,10.30
2018-07-01T01:44:32.565Z,10.00
2018-07-01T01:45:32.562Z,9.90
2018-07-01T01:46:32.562Z,10.50
2018-07-01T01:47:32.557Z,10.40
2018-07-01T01:48:32.556Z,10.60
2018-07-01T01:49:32.554Z,10.60
2018-07-01T01:50:32.545Z,10.40
2018-07-01T01:51:32.540Z,10.50
2018-07-01T01:52:32.545Z,11.10
2018-07-01T01:53:32.540Z,10.90
2018-07-01T01:54:32.533Z,10.90
2018-07-01T01:55:32.530Z,10.90
2018-07-01T01:56:32.532Z,11.20
2018-07-01T01:57:32.531Z,10.80
2018-07-01T01:58:32.530Z,10.70
2018-07-01T01:59:32.524Z,10.60
2018-07-01T02:00:32.516Z,11.00
2018-07-01T02:01:32.514Z,10.90
2018-07-01T02:02:32.514Z,10.90
2018-07-01T02:03:32.510Z,10.40
2018-07-01T02:04:32.511Z,10.30
2018-07-01T02:05:32.508Z,11.10
2018-07-01T02:06:32.507Z,10.80
2018-07-01T02:07:32.500Z,10.50
2018-07-01T02:08:32.495Z,10.90
2018-07-01T02:09:32.491Z,10.40
2018-07-01T02:10:32.492Z,10.10
2018-07-01T02:11:32.489Z,10.60
2018-07-01T02:12:32.484Z,10.40
2018-07-01T02:13:32.479Z,10.10
2018-07-01T02:14:32.479Z,10.30
2018-07-01T02:15:32.474Z,9.30
2018-07-01T02:16:32.478Z,9.60
2018-07-01T02:17:32.472Z,9.60
2018-07-01T02:18:32.470Z,9.70
2018-07-01T02:19:32.469Z,10.10
2018-07-01T02:20:32.458Z,9.50
2018-07-01T02:21:32.459Z,9.90
2018-07-01T02:22:32.452Z,9.80
2018-07-01T02:23:32.452Z,9.70
2018-07-01T02:24:32.453Z,9.70
2018-07-01T02:25:32.447Z,9.60
2018-07-01T02:26:32.441Z,9.40
2018-07-01T02:27:32.437Z,9.80
2018-07-01T02:28:32.440Z,9.40
2018-07-01T02:29:32.439Z,10.00
2018-07-01T02:30:32.435Z,10.20
2018-07-01T02:31:32.434Z,10.30
2018-07-01T02:32:32.424Z,9.90
2018-07-01T02:33:32.422Z,10.40
2018-07-01T02:34:32.417Z,10.90
2018-07-01T02:35:32.633Z,10.00
2018-07-01T02:36:32.415Z,9.60
2018-07-01T02:37:32.412Z,10.60
2018-07-01T02:38:32.411Z,11.50
2018-07-01T02:39:32.406Z,10.50
2018-07-01T02:40:32.398Z,10.60
2018-07-01T02:41:32.397Z,10.70
2018-07-01T02:42:32.402Z,10.30
2018-07-01T02:43:32.393Z,12.90
2018-07-01T02:44:32.387Z,10.60
2018-07-01T02:45:32.385Z,10.20
2018-07-01T02:46:32.380Z,10.10
2018-07-01T02:47:32.378Z,9.90
2018-07-01T02:48:32.385Z,10.40
2018-07-01T02:49:32.376Z,10.10
2018-07-01T02:50:32.374Z,10.40
2018-07-01T02:51:32.378Z,10.80
2018-07-01T02:52:32.365Z,10.50
2018-07-01T02:53:32.359Z,11.00
2018-07-01T02:54:32.359Z,10.80
2018-07-01T02:55:32.403Z,10.50
2018-07-01T02:56:32.360Z,10.70
2018-07-01T02:57:32.351Z,10.60
2018-07-01T02:58:32.344Z,10.70
2018-07-01T02:59:32.340Z,9.90
2018-07-01T03:00:32.342Z,10.40
2018-07-01T03:01:32.349Z,10.90
2018-07-01T03:02:32.335Z,11.10
2018-07-01T03:03:32.331Z,10.90
2018-07-01T03:04:32.323Z,10.60
2018-07-01T03:05:32.320Z,10.60
2018-07-01T03:06:32.316Z,10.50
2018-07-01T03:07:32.314Z,10.80
2018-07-01T03:08:32.314Z,10.90
2018-07-01T03:09:32.311Z,11.00
2018-07-01T03:10:32.308Z,10.60
2018-07-01T03:11:32.305Z,11.00
2018-07-01T03:12:32.296Z,10.90
2018-07-01T03:13:32.294Z,11.10
2018-07-01T03:14:32.296Z,10.90
2018-07-01T03:15:32.294Z,11.10
2018-07-01T03:16:32.282Z,11.10
2018-07-01T03:17:32.280Z,11.00
2018-07-01T03:18:32.276Z,10.70
2018-07-01T03:19:32.273Z,11.00
2018-07-01T03:20:32.274Z,11.60
2018-07-01T03:21:32.272Z,10.60
2018-07-01T03:22:32.266Z,10.60
2018-07-01T03:23:32.268Z,11.00
2018-07-01T03:24:32.254Z,10.70
2018-07-01T03:25:32.252Z,10.10
2018-07-01T03:26:32.249Z,10.60
2018-07-01T03:27:32.244Z,11.00
2018-07-01T03:28:32.247Z,10.70
2018-07-01T03:29:32.244Z,11.10
2018-07-01T03:30:32.235Z,10.10
2018-07-01T03:31:32.230Z,10.10
2018-07-01T03:32:32.233Z,10.00
2018-07-01T03:33:32.228Z,10.00
2018-07-01T03:34:32.225Z,10.00
2018-07-01T03:35:32.220Z,10.00
2018-07-01T03:36:32.212Z,10.30
2018-07-01T03:37:32.210Z,10.20
2018-07-01T03:38:32.213Z,10.00
2018-07-01T03:39:32.208Z,10.50
2018-07-01T03:40:32.198Z,10.10
2018-07-01T03:41:32.196Z,11.10
2018-07-01T03:42:32.193Z,10.30
2018-07-01T03:43:32.188Z,9.70
2018-07-01T03:44:32.190Z,9.60
2018-07-01T03:45:32.188Z,9.60
2018-07-01T03:46:32.178Z,10.60
2018-07-01T03:47:32.176Z,9.70
2018-07-01T03:48:32.176Z,10.00
2018-07-01T03:49:32.174Z,9.90
2018-07-01T03:50:32.169Z,10.20
2018-07-01T03:51:32.163Z,10.20
2018-07-01T03:52:32.157Z,10.00
2018-07-01T03:53:32.153Z,9.90
2018-07-01T03:54:32.150Z,10.20
2018-07-01T03:55:32.151Z,10.60
2018-07-01T03:56:32.147Z,10.10
2018-07-01T03:57:32.146Z,10.50
2018-07-01T03:58:32.142Z,10.60
2018-07-01T03:59:32.138Z,10.90
2018-07-01T04:00:32.199Z,10.00
2018-07-01T04:01:32.125Z,10.30
2018-07-01T04:02:32.128Z,10.20
2018-07-01T04:03:32.124Z,10.40
2018-07-01T04:04:32.116Z,10.50
2018-07-01T04:05:32.111Z,10.80
2018-07-01T04:06:32.111Z,10.70
2018-07-01T04:07:32.103Z,10.00
2018-07-01T04:08:32.104Z,10.20
2018-07-01T04:09:32.102Z,10.40
2018-07-01T04:10:32.102Z,10.30
2018-07-01T04:11:32.094Z,10.30
2018-07-01T04:12:32.087Z,11.10
2018-07-01T04:13:32.084Z,10.30
2018-07-01T04:14:32.080Z,10.30
2018-07-01T04:15:32.076Z,10.60
2018-07-01T04:16:32.078Z,10.10
2018-07-01T04:17:32.074Z,10.40
2018-07-01T04:18:32.069Z,10.10
2018-07-01T04:19:32.064Z,10.20
2018-07-01T04:20:32.065Z,11.70
2018-07-01T04:21:32.062Z,10.40
2018-07-01T04:22:32.057Z,10.70
2018-07-01T04:23:32.053Z,10.00
2018-07-01T04:24:32.046Z,10.40
2018-07-01T04:25:32.043Z,10.70
2018-07-01T04:26:32.040Z,10.40
2018-07-01T04:27:32.036Z,10.30
2018-07-01T04:28:32.037Z,10.60
2018-07-01T04:29:32.035Z,10.90
2018-07-01T04:30:32.031Z,10.60
2018-07-01T04:31:32.028Z,10.40
2018-07-01T04:32:32.019Z,10.00
2018-07-01T04:33:32.016Z,10.00
2018-07-01T04:34:32.018Z,10.30
2018-07-01T04:35:32.015Z,9.50
2018-07-01T04:36:32.006Z,10.10
2018-07-01T04:37:32.004Z,9.80
2018-07-01T04:38:32.000Z,9.50
2018-07-01T04:39:31.999Z,9.40
2018-07-01T04:40:31.998Z,9.30
2018-07-01T04:41:31.995Z,9.20
2018-07-01T04:42:31.996Z,9.20
2018-07-01T04:43:31.990Z,9.10
2018-07-01T04:44:31.981Z,9.90
2018-07-01T04:45:31.978Z,9.50
2018-07-01T04:46:31.977Z,9.40
2018-07-01T04:47:31.976Z,9.60
2018-07-01T04:48:31.976Z,9.30
2018-07-01T04:49:31.971Z,9.30
2018-07-01T04:50:31.963Z,9.70
2018-07-01T04:51:31.959Z,9.20
2018-07-01T04:52:31.961Z,9.40
2018-07-01T04:53:31.958Z,10.30
2018-07-01T04:54:31.957Z,9.80
2018-07-01T04:55:31.953Z,9.70
2018-07-01T04:56:31.945Z,9.80
2018-07-01T04:57:31.943Z,9.60
2018-07-01T04:58:31.940Z,9.20
2018-07-01T04:59:31.937Z,9.20
2018-07-01T05:00:31.939Z,9.50
2018-07-01T05:01:31.937Z,9.50
2018-07-01T05:02:31.951Z,9.40
2018-07-01T05:03:31.929Z,9.30
2018-07-01T05:04:31.924Z,9.30
2018-07-01T05:05:31.921Z,9.20
2018-07-01T05:06:31.924Z,9.00
2018-07-01T05:07:31.922Z,9.50
2018-07-01T05:08:31.916Z,9.10
2018-07-01T05:09:31.915Z,9.60
2018-07-01T05:10:31.915Z,8.90
2018-07-01T05:11:31.914Z,10.00
2018-07-01T05:12:31.918Z,7.70
2018-07-01T05:13:31.919Z,8.60
2018-07-01T05:14:31.918Z,9.10
2018-07-01T05:15:31.918Z,8.70
2018-07-01T05:16:31.915Z,8.90
2018-07-01T05:17:31.916Z,8.70
2018-07-01T05:18:31.917Z,8.80
2018-07-01T05:19:31.918Z,8.60
2018-07-01T05:20:31.925Z,8.80
2018-07-01T05:21:31.927Z,8.80
2018-07-01T05:22:31.925Z,9.00
2018-07-01T05:23:31.928Z,9.00
2018-07-01T05:24:31.935Z,9.00
2018-07-01T05:25:31.938Z,9.10
2018-07-01T05:26:31.942Z,9.10
2018-07-01T05:27:31.988Z,9.20
2018-07-01T05:28:31.944Z,9.30
2018-07-01T05:29:31.947Z,9.00
2018-07-01T05:30:31.952Z,9.60
2018-07-01T05:31:31.956Z,9.80
2018-07-01T05:32:31.966Z,9.30
2018-07-01T05:33:31.970Z,9.40
2018-07-01T05:34:31.975Z,9.30
2018-07-01T05:35:31.977Z,9.40
2018-07-01T05:36:31.978Z,9.60
2018-07-01T05:37:31.983Z,9.60
2018-07-01T05:38:31.993Z,9.90
2018-07-01T05:39:31.997Z,9.70
2018-07-01T05:40:31.998Z,9.50
2018-07-01T05:41:32.004Z,9.20
2018-07-01T05:42:32.010Z,9.70
2018-07-01T05:43:32.015Z,9.50
2018-07-01T05:44:32.026Z,9.20
2018-07-01T05:45:32.031Z,9.60
2018-07-01T05:46:32.039Z,8.60
2018-07-01T05:47:32.041Z,8.40
2018-07-01T05:48:32.042Z,8.70
2018-07-01T05:49:32.049Z,9.10
2018-07-01T05:50:32.055Z,9.80
2018-07-01T05:51:32.062Z,11.50
2018-07-01T05:52:32.073Z,21.30
2018-07-01T05:53:32.079Z,34.70
2018-07-01T05:54:32.083Z,811.30
2018-07-01T05:55:32.089Z,791.80
2018-07-01T05:56:32.098Z,1999.90
2018-07-01T05:57:32.105Z,1999.90
2018-07-01T05:58:32.111Z,1999.90
2018-07-01T05:59:32.117Z,1999.90
2018-07-01T06:00:32.120Z,1999.90
2018-07-01T06:01:32.127Z,1999.90
2018-07-01T06:02:32.137Z,1999.90
2018-07-01T06:03:32.139Z,1999.90
2018-07-01T06:04:32.151Z,1999.90
2018-07-01T06:05:32.159Z,1613.00
2018-07-01T06:06:32.167Z,758.20
2018-07-01T06:07:32.173Z,1999.90
2018-07-01T06:08:32.209Z,1999.90
2018-07-01T06:09:32.184Z,1999.90
2018-07-01T06:10:32.195Z,1999.90
2018-07-01T06:11:32.201Z,1999.90
2018-07-01T06:12:32.204Z,1999.90
2018-07-01T06:13:32.212Z,1999.90
2018-07-01T06:14:32.218Z,1999.90
2018-07-01T06:15:32.226Z,1999.90
2018-07-01T06:16:32.288Z,1999.90
2018-07-01T06:17:32.256Z,1999.90
2018-07-01T06:18:32.254Z,1999.90
2018-07-01T06:19:32.261Z,1999.90
2018-07-01T06:20:32.263Z,1999.90
2018-07-01T06:21:32.270Z,1999.90
2018-07-01T06:22:32.278Z,1999.90
2018-07-01T06:23:32.290Z,1999.90
2018-07-01T06:24:32.304Z,1999.90
2018-07-01T06:25:32.308Z,1999.90
2018-07-01T06:26:32.313Z,1999.90
2018-07-01T06:27:32.317Z,1999.90
2018-07-01T06:28:32.331Z,1999.90
2018-07-01T06:29:32.339Z,1999.90
2018-07-01T06:30:32.346Z,1999.90
2018-07-01T06:31:32.354Z,1999.90
2018-07-01T06:32:32.358Z,1999.90
2018-07-01T06:33:32.366Z,1999.90
2018-07-01T06:34:32.375Z,1999.90
2018-07-01T06:35:32.383Z,1999.90
2018-07-01T06:36:32.396Z,1999.90
2018-07-01T06:37:32.405Z,1999.90
2018-07-01T06:38:32.414Z,1999.90
2018-07-01T06:39:32.421Z,1999.90
2018-07-01T06:40:32.427Z,1999.90
2018-07-01T06:41:32.436Z,1999.90
2018-07-01T06:42:32.449Z,1999.90
2018-07-01T06:43:32.458Z,1999.90
2018-07-01T06:44:32.461Z,1999.90
2018-07-01T06:45:32.470Z,1999.90
2018-07-01T06:46:32.480Z,1999.90
2018-07-01T06:47:32.490Z,1999.90
2018-07-01T06:48:32.500Z,1754.00
2018-07-01T06:49:32.538Z,1999.90
2018-07-01T06:50:32.521Z,839.40
2018-07-01T06:51:32.529Z,553.40
2018-07-01T06:52:32.535Z,854.30
2018-07-01T06:53:32.544Z,715.50
2018-07-01T06:54:32.553Z,282.80
2018-07-01T06:55:32.562Z,177.50
2018-07-01T06:56:32.667Z,170.00
2018-07-01T06:57:32.588Z,166.20
2018-07-01T06:58:32.592Z,1027.50
2018-07-01T06:59:32.602Z,1202.50
2018-07-01T07:00:32.616Z,148.50
2018-07-01T07:01:32.626Z,323.60
2018-07-01T07:02:32.711Z,233.90
2018-07-01T07:03:32.647Z,310.20
2018-07-01T07:04:32.650Z,169.20
2018-07-01T07:05:32.663Z,784.10
2018-07-01T07:06:32.672Z,304.40
2018-07-01T07:07:32.681Z,277.20
2018-07-01T07:08:32.698Z,263.30
2018-07-01T07:09:32.707Z,809.20
2018-07-01T07:10:32.717Z,288.70
2018-07-01T07:11:32.726Z,294.10
2018-07-01T07:12:32.731Z,233.80
2018-07-01T07:13:32.742Z,191.40
2018-07-01T07:14:32.760Z,115.00
2018-07-01T07:15:32.766Z,116.30
2018-07-01T07:16:32.773Z,383.70
2018-07-01T07:17:32.785Z,186.30
2018-07-01T07:18:32.795Z,191.10
2018-07-01T07:19:32.805Z,370.80
2018-07-01T07:20:32.824Z,154.90
2018-07-01T07:21:32.834Z,106.10
2018-07-01T07:22:32.847Z,167.20
2018-07-01T07:23:32.857Z,175.80
2018-07-01T07:24:32.927Z,252.20
2018-07-01T07:25:32.877Z,242.00
2018-07-01T07:26:32.887Z,112.20
2018-07-01T07:27:32.898Z,64.40
2018-07-01T07:28:32.914Z,60.90
2018-07-01T07:29:32.927Z,93.10
2018-07-01T07:30:32.934Z,79.80
2018-07-01T07:31:32.946Z,62.20
2018-07-01T07:32:32.962Z,74.00
2018-07-01T07:33:32.976Z,1154.10
2018-07-01T07:34:32.987Z,272.10
2018-07-01T07:35:32.999Z,68.30
2018-07-01T07:36:33.016Z,75.20
2018-07-01T07:37:33.019Z,64.90
2018-07-01T07:38:33.032Z,94.20
2018-07-01T07:39:33.044Z,107.00
2018-07-01T07:40:33.061Z,54.10
2018-07-01T07:41:33.073Z,40.70
2018-07-01T07:42:33.085Z,84.00
2018-07-01T07:43:33.100Z,102.60
2018-07-01T07:44:33.104Z,131.50
2018-07-01T07:45:33.122Z,1212.20
2018-07-01T07:46:33.136Z,230.60
2018-07-01T07:47:33.149Z,205.70
2018-07-01T07:48:33.157Z,95.30
2018-07-01T07:49:33.171Z,43.30
2018-07-01T07:50:33.184Z,323.50
2018-07-01T07:51:33.198Z,163.80
2018-07-01T07:52:33.215Z,212.40
2018-07-01T07:53:33.229Z,65.90
2018-07-01T07:54:33.242Z,335.90
2018-07-01T07:55:33.255Z,127.00
2018-07-01T07:56:33.263Z,136.90
2018-07-01T07:57:33.275Z,826.80
2018-07-01T07:58:33.290Z,145.20
2018-07-01T07:59:33.305Z,111.20
2018-07-01T08:00:33.320Z,149.40
2018-07-01T08:01:33.332Z,30.20
2018-07-01T08:02:33.341Z,1999.90
2018-07-01T08:03:33.352Z,147.60
2018-07-01T08:04:33.370Z,21.50
2018-07-01T08:05:33.383Z,30.50
2018-07-01T08:06:33.398Z,44.60
2018-07-01T08:07:33.409Z,63.30
2018-07-01T08:08:33.419Z,86.40
2018-07-01T08:09:33.432Z,144.70
2018-07-01T08:10:33.442Z,247.30
2018-07-01T08:11:33.455Z,307.00
2018-07-01T08:12:33.473Z,328.00
2018-07-01T08:13:33.488Z,338.90
2018-07-01T08:14:33.498Z,374.10
2018-07-01T08:15:33.510Z,90.70
2018-07-01T08:16:33.519Z,69.80
2018-07-01T08:17:33.532Z,188.90
2018-07-01T08:18:33.550Z,84.90
2018-07-01T08:19:33.562Z,52.40
2018-07-01T08:20:33.571Z,70.50
2018-07-01T08:21:33.585Z,71.60
2018-07-01T08:22:33.598Z,103.70
2018-07-01T08:23:33.611Z,197.40
2018-07-01T08:24:33.629Z,248.00
2018-07-01T08:25:33.643Z,238.90
2018-07-01T08:26:33.656Z,253.70
2018-07-01T08:27:33.669Z,244.80
2018-07-01T08:28:33.678Z,237.40
2018-07-01T08:29:33.693Z,239.10
2018-07-01T08:30:33.706Z,225.50
2018-07-01T08:31:33.718Z,216.30
2018-07-01T08:32:33.736Z,210.30
2018-07-01T08:33:33.750Z,183.20
2018-07-01T08:34:33.766Z,133.20
2018-07-01T08:35:33.772Z,114.90
2018-07-01T08:36:33.793Z,78.10
2018-07-01T08:37:33.803Z,73.80
2018-07-01T08:38:33.822Z,85.00
2018-07-01T08:39:33.831Z,106.80
2018-07-01T08:40:33.839Z,125.10
2018-07-01T08:41:33.852Z,106.60
2018-07-01T08:42:33.867Z,91.30
2018-07-01T08:43:33.880Z,82.80
2018-07-01T08:44:33.897Z,91.40
2018-07-01T08:45:33.909Z,97.30
2018-07-01T08:46:33.921Z,235.50
2018-07-01T08:47:33.933Z,106.20
2018-07-01T08:48:33.945Z,127.30
2018-07-01T08:49:33.956Z,129.20
2018-07-01T08:50:33.975Z,129.50
2018-07-01T08:51:33.986Z,154.70
2018-07-01T08:52:34.008Z,178.40
2018-07-01T08:53:34.011Z,168.30
2018-07-01T08:54:34.026Z,227.40
2018-07-01T08:55:34.037Z,587.50
2018-07-01T08:56:34.057Z,204.90
2018-07-01T08:57:34.070Z,269.70
2018-07-01T08:58:34.084Z,548.20
2018-07-01T08:59:34.106Z,209.00
2018-07-01T09:00:34.109Z,139.10
2018-07-01T09:01:34.123Z,157.20
2018-07-01T09:02:34.136Z,162.40
2018-07-01T09:03:34.150Z,394.30
2018-07-01T09:04:34.171Z,152.70
2018-07-01T09:05:34.186Z,87.30
2018-07-01T09:06:34.194Z,333.00
2018-07-01T09:07:34.208Z,215.40
2018-07-01T09:08:34.307Z,68.30
2018-07-01T09:09:34.245Z,55.30
2018-07-01T09:10:34.264Z,93.40
2018-07-01T09:11:34.274Z,86.90
2018-07-01T09:12:34.284Z,79.70
2018-07-01T09:13:34.301Z,150.80
2018-07-01T09:14:34.314Z,194.20
2018-07-01T09:15:34.334Z,287.20
2018-07-01T09:16:34.349Z,94.40
2018-07-01T09:17:34.364Z,78.90
2018-07-01T09:18:34.380Z,50.80
2018-07-01T09:19:34.394Z,71.20
2018-07-01T09:20:34.405Z,189.10
2018-07-01T09:21:34.421Z,173.40
2018-07-01T09:22:34.442Z,71.50
2018-07-01T09:23:34.497Z,167.80
2018-07-01T09:24:34.465Z,67.10
2018-07-01T09:25:34.481Z,49.40
2018-07-01T09:26:34.496Z,55.20
2018-07-01T09:27:34.512Z,55.50
2018-07-01T09:28:34.531Z,44.50
2018-07-01T09:29:34.545Z,35.00
2018-07-01T09:30:34.562Z,32.30
2018-07-01T09:31:34.576Z,39.40
2018-07-01T09:32:34.588Z,52.10
2018-07-01T09:33:34.603Z,58.10
2018-07-01T09:34:34.676Z,72.70
2018-07-01T09:35:34.633Z,126.90
2018-07-01T09:36:34.655Z,53.30
2018-07-01T09:37:34.671Z,187.80
2018-07-01T09:38:34.684Z,193.70
2018-07-01T09:39:34.698Z,131.90
2018-07-01T09:40:34.717Z,67.10
2018-07-01T09:41:34.735Z,49.80
2018-07-01T09:42:34.749Z,46.40
2018-07-01T09:43:34.764Z,79.70
2018-07-01T09:44:34.776Z,109.70
2018-07-01T09:45:34.791Z,51.50
2018-07-01T09:46:34.812Z,40.30
2018-07-01T09:47:34.822Z,29.70
2018-07-01T09:48:34.843Z,33.80
2018-07-01T09:49:34.857Z,19.20
2018-07-01T09:50:34.891Z,57.40
2018-07-01T09:51:34.889Z,36.70
2018-07-01T09:52:34.902Z,200.50
2018-07-01T09:53:34.916Z,66.30
2018-07-01T09:54:34.936Z,82.60
2018-07-01T09:55:34.950Z,45.30
2018-07-01T09:56:34.961Z,33.80
2018-07-01T09:57:34.976Z,133.10
2018-07-01T09:58:34.992Z,55.50
2018-07-01T09:59:35.007Z,29.30
2018-07-01T10:00:35.030Z,83.50
2018-07-01T10:01:35.044Z,35.40
2018-07-01T10:02:35.059Z,49.80
2018-07-01T10:03:35.074Z,40.90
2018-07-01T10:04:35.084Z,91.10
2018-07-01T10:05:35.099Z,43.70
2018-07-01T10:06:35.114Z,47.40
2018-07-01T10:07:35.129Z,69.70
2018-07-01T10:08:35.148Z,71.50
2018-07-01T10:09:35.216Z,45.10
2018-07-01T10:10:35.175Z,48.50
2018-07-01T10:11:35.190Z,47.90
2018-07-01T10:12:35.211Z,47.20
2018-07-01T10:13:35.225Z,44.00
2018-07-01T10:14:35.242Z,45.10
2018-07-01T10:15:35.255Z,44.20
2018-07-01T10:16:35.268Z,138.10
2018-07-01T10:17:35.283Z,91.50
2018-07-01T10:18:35.300Z,53.20
2018-07-01T10:19:35.313Z,46.10
2018-07-01T10:20:35.334Z,58.90
2018-07-01T10:21:35.353Z,48.30
2018-07-01T10:22:35.364Z,53.90
2018-07-01T10:23:35.380Z,36.40
2018-07-01T10:24:35.390Z,31.10
2018-07-01T10:25:35.406Z,35.90
2018-07-01T10:26:35.449Z,44.10
2018-07-01T10:27:35.445Z,47.10
2018-07-01T10:28:35.452Z,45.10
2018-07-01T10:29:35.468Z,46.50
2018-07-01T10:30:35.486Z,83.10
2018-07-01T10:31:35.498Z,53.10
2018-07-01T10:32:35.519Z,58.00
2018-07-01T10:33:35.585Z,51.00
2018-07-01T10:34:35.552Z,34.40
2018-07-01T10:35:35.565Z,47.00
2018-07-01T10:36:35.575Z,57.20
2018-07-01T10:37:35.591Z,47.20
2018-07-01T10:38:35.607Z,43.80
2018-07-01T10:39:35.622Z,47.70
2018-07-01T10:40:35.642Z,47.80
2018-07-01T10:41:35.658Z,54.70
2018-07-01T10:42:35.669Z,43.50
2018-07-01T10:43:35.684Z,42.90
2018-07-01T10:44:35.707Z,168.70
2018-07-01T10:45:35.720Z,49.50
2018-07-01T10:46:35.740Z,168.00
2018-07-01T10:47:35.751Z,69.90
2018-07-01T10:48:35.765Z,61.40
2018-07-01T10:49:35.779Z,63.30
2018-07-01T10:50:35.793Z,58.60
2018-07-01T10:51:35.866Z,86.90
2018-07-01T10:52:35.828Z,82.20
2018-07-01T10:53:35.845Z,51.30
2018-07-01T10:54:35.859Z,51.10
2018-07-01T10:55:35.873Z,43.50
2018-07-01T10:56:35.885Z,74.40
2018-07-01T10:57:35.930Z,57.20
2018-07-01T10:58:35.923Z,37.10
2018-07-01T10:59:35.935Z,124.20
2018-07-01T11:00:35.948Z,97.90
2018-07-01T11:01:35.962Z,100.50
2018-07-01T11:02:35.979Z,533.90
2018-07-01T11:03:35.994Z,129.00
2018-07-01T11:04:36.014Z,110.00
2018-07-01T11:05:36.029Z,103.40
2018-07-01T11:06:36.043Z,100.00
2018-07-01T11:07:36.058Z,102.30
2018-07-01T11:08:36.068Z,101.00
2018-07-01T11:09:36.083Z,73.40
2018-07-01T11:10:36.100Z,94.00
2018-07-01T11:11:36.118Z,79.70
2018-07-01T11:12:36.131Z,104.90
2018-07-01T11:13:36.151Z,93.80
2018-07-01T11:14:36.156Z,94.00
2018-07-01T11:15:36.170Z,71.40
2018-07-01T11:16:36.191Z,82.90
2018-07-01T11:17:36.205Z,106.50
2018-07-01T11:18:36.223Z,100.80
2018-07-01T11:19:36.232Z,101.70
2018-07-01T11:20:36.245Z,93.10
2018-07-01T11:21:36.258Z,89.50
2018-07-01T11:22:36.272Z,93.30
2018-07-01T11:23:36.286Z,93.60
2018-07-01T11:24:36.307Z,124.00
2018-07-01T11:25:36.320Z,56.10
2018-07-01T11:26:36.416Z,44.70
2018-07-01T11:27:36.514Z,20.60
2018-07-01T11:28:36.354Z,15.70
2018-07-01T11:29:36.367Z,13.30
2018-07-01T11:30:36.385Z,10.30
2018-07-01T11:31:36.394Z,13.80
2018-07-01T11:32:36.403Z,11.10
2018-07-01T11:33:36.412Z,11.30
2018-07-01T11:34:36.425Z,11.70
2018-07-01T11:35:36.432Z,13.10
2018-07-01T11:36:36.447Z,16.20
2018-07-01T11:37:36.457Z,16.60
2018-07-01T11:38:36.465Z,13.40
2018-07-01T11:39:36.472Z,11.40
2018-07-01T11:40:36.477Z,12.30
2018-07-01T11:41:36.485Z,111.10
2018-07-01T11:42:36.554Z,12.20
2018-07-01T11:43:36.500Z,13.50
2018-07-01T11:44:36.580Z,11.90
2018-07-01T11:45:36.521Z,11.70
2018-07-01T11:46:36.522Z,12.00
2018-07-01T11:47:36.530Z,15.10
2018-07-01T11:48:36.541Z,11.70
2018-07-01T11:49:36.547Z,11.20
2018-07-01T11:50:36.553Z,11.70
2018-07-01T11:51:36.559Z,11.30
2018-07-01T11:52:36.561Z,11.40
2018-07-01T11:53:36.567Z,13.20
2018-07-01T11:54:36.572Z,78.30
2018-07-01T11:55:36.581Z,12.70
2018-07-01T11:56:36.588Z,15.60
2018-07-01T11:57:36.594Z,16.60
2018-07-01T11:58:36.601Z,14.10
2018-07-01T11:59:36.605Z,16.10
2018-07-01T12:00:36.607Z,15.00
2018-07-01T12:01:36.611Z,13.40
2018-07-01T12:02:36.623Z,12.00
2018-07-01T12:03:36.626Z,13.00
2018-07-01T12:04:36.629Z,15.40
2018-07-01T12:05:36.693Z,14.60
2018-07-01T12:06:36.640Z,16.00
2018-07-01T12:07:36.644Z,13.10
2018-07-01T12:08:36.650Z,14.60
2018-07-01T12:09:36.655Z,16.00
2018-07-01T12:10:36.656Z,223.90
2018-07-01T12:11:36.660Z,23.70
2018-07-01T12:12:36.671Z,16.20
2018-07-01T12:13:36.675Z,17.40
2018-07-01T12:14:36.680Z,66.40
2018-07-01T12:15:36.683Z,22.30
2018-07-01T12:16:36.684Z,66.60
2018-07-01T12:17:36.688Z,20.40
2018-07-01T12:18:36.698Z,31.30
2018-07-01T12:19:36.732Z,21.10
2018-07-01T12:20:36.721Z,18.30
2018-07-01T12:21:36.706Z,37.00
2018-07-01T12:22:36.711Z,15.80
2018-07-01T12:23:36.744Z,19.20
2018-07-01T12:24:36.724Z,22.10
2018-07-01T12:25:36.728Z,21.00
2018-07-01T12:26:36.733Z,26.20
2018-07-01T12:27:36.736Z,24.50
2018-07-01T12:28:36.736Z,18.00
2018-07-01T12:29:36.740Z,20.00
2018-07-01T12:30:36.745Z,21.60
2018-07-01T12:31:36.751Z,18.50
2018-07-01T12:32:36.757Z,27.50
2018-07-01T12:33:36.761Z,91.90
2018-07-01T12:34:36.809Z,15.70
2018-07-01T12:35:36.765Z,22.00
2018-07-01T12:36:36.779Z,20.50
2018-07-01T12:37:36.777Z,20.30
2018-07-01T12:38:36.783Z,19.30
2018-07-01T12:39:36.787Z,29.30
2018-07-01T12:40:36.788Z,23.20
2018-07-01T12:41:36.790Z,53.80
2018-07-01T12:42:36.794Z,25.40
2018-07-01T12:43:36.797Z,22.80
2018-07-01T12:44:36.807Z,21.60
2018-07-01T12:45:36.810Z,26.10
2018-07-01T12:46:36.818Z,25.30
2018-07-01T12:47:36.828Z,22.10
2018-07-01T12:48:36.819Z,20.10